Time;durP1;ratioP1;P1;durP2;ratioP2;P2;SDS_P1;SDS_P2;PMS_P1;PMS_P2;Temp;Humidity;BMP_temperature;BMP_pressure;BME280_temperature;BME280_humidity;BME280_pressure;Samples;Min_cycle;Max_cycle;Signal;HPM_P1;HPM_P2
2021/11/30 00:00:23;;;;;;;1.07;0.60;;;13.40;99.90;;;;;;6295524;22;20164;-89
2021/11/30 00:02:59;;;;;;;1.77;0.47;;;13.30;99.90;;;;;;6295894;22;20241;-88
2021/11/30 00:05:33;;;;;;;0.50;0.40;;;13.40;99.90;;;;;;6270079;22;20180;-89
2021/11/30 00:08:07;;;;;;;0.40;0.40;;;13.30;99.90;;;;;;6268887;23;20194;-88
2021/11/30 00:10:45;;;;;;;0.33;0.30;;;13.30;99.90;;;;;;6263810;23;20195;-88
2021/11/30 00:13:20;;;;;;;1.60;0.70;;;13.20;99.90;;;;;;6261295;23;20191;-88
2021/11/30 00:15:53;;;;;;;1.97;0.50;;;13.20;99.90;;;;;;6258617;22;20517;-87
2021/11/30 00:18:32;;;;;;;0.50;0.50;;;13.10;99.90;;;;;;6258770;23;20202;-87
2021/11/30 00:21:09;;;;;;;0.80;0.40;;;13.10;99.90;;;;;;6262713;23;20168;-87
2021/11/30 00:23:41;;;;;;;4.87;0.90;;;13.10;99.90;;;;;;6265099;23;20168;-88
2021/11/30 00:26:16;;;;;;;1.03;0.50;;;13.10;99.90;;;;;;6263112;22;20465;-86
2021/11/30 00:28:48;;;;;;;0.83;0.60;;;13.00;99.90;;;;;;6260010;22;20198;-87
2021/11/30 00:31:20;;;;;;;0.60;0.60;;;13.00;99.90;;;;;;6262450;22;20199;-87
2021/11/30 00:33:55;;;;;;;0.57;0.50;;;13.00;99.90;;;;;;6259866;22;20194;-87
2021/11/30 00:36:30;;;;;;;0.53;0.50;;;13.00;99.90;;;;;;6255360;23;20182;-88
2021/11/30 00:39:07;;;;;;;0.97;0.60;;;13.00;99.90;;;;;;6261454;23;20479;-87
2021/11/30 00:41:49;;;;;;;0.53;0.53;;;12.90;99.90;;;;;;6265759;23;20205;-88
2021/11/30 00:44:26;;;;;;;1.37;0.90;;;12.90;99.90;;;;;;6263841;23;20192;-87
2021/11/30 00:46:58;;;;;;;1.10;1.00;;;12.80;99.90;;;;;;6266837;22;20216;-88
2021/11/30 00:49:34;;;;;;;0.80;0.60;;;12.80;99.90;;;;;;6265860;22;20189;-88
2021/11/30 00:52:08;;;;;;;1.20;1.00;;;12.80;99.90;;;;;;6263385;23;20196;-88
2021/11/30 00:54:41;;;;;;;0.93;0.70;;;12.80;99.90;;;;;;6288770;22;20235;-88
2021/11/30 00:57:15;;;;;;;1.10;0.60;;;12.80;99.90;;;;;;6268208;22;20210;-89
2021/11/30 00:59:51;;;;;;;2.23;0.93;;;12.70;99.90;;;;;;6265107;22;20190;-88
2021/11/30 01:02:26;;;;;;;0.80;0.73;;;12.60;99.90;;;;;;6269606;23;20191;-89
2021/11/30 01:05:00;;;;;;;4.00;0.70;;;12.60;99.90;;;;;;6267739;22;20234;-89
2021/11/30 01:07:34;;;;;;;3.70;0.73;;;12.50;99.90;;;;;;6267741;22;20201;-89
2021/11/30 01:10:11;;;;;;;1.93;0.70;;;12.50;99.90;;;;;;6287783;22;20227;-89
2021/11/30 01:12:43;;;;;;;1.37;0.90;;;12.50;99.90;;;;;;6267119;23;20171;-88
2021/11/30 01:15:17;;;;;;;0.80;0.60;;;12.50;99.90;;;;;;6269995;22;20179;-88
2021/11/30 01:17:50;;;;;;;2.73;0.87;;;12.50;99.90;;;;;;6267561;23;20174;-87
2021/11/30 01:20:26;;;;;;;2.37;2.03;;;12.40;99.90;;;;;;6261874;22;20179;-88
2021/11/30 01:23:00;;;;;;;1.37;1.10;;;12.50;99.90;;;;;;6258223;22;20201;-89
2021/11/30 01:25:32;;;;;;;1.70;1.00;;;12.40;99.90;;;;;;6255974;22;20342;-88
2021/11/30 01:28:06;;;;;;;0.90;0.70;;;12.50;99.90;;;;;;6262310;22;20176;-90
2021/11/30 01:30:40;;;;;;;4.97;1.00;;;12.50;99.90;;;;;;6258353;22;20191;-88
2021/11/30 01:33:13;;;;;;;2.50;0.90;;;12.50;99.90;;;;;;6265124;22;20612;-88
2021/11/30 01:35:47;;;;;;;1.87;1.10;;;12.50;99.90;;;;;;6264181;23;20180;-88
2021/11/30 01:38:21;;;;;;;1.70;1.00;;;12.40;99.90;;;;;;6264216;23;20175;-92
2021/11/30 01:41:00;;;;;;;1.20;0.97;;;12.50;99.90;;;;;;6265475;23;20152;-92
2021/11/30 01:43:39;;;;;;;1.00;1.00;;;12.50;99.90;;;;;;6265886;22;20199;-88
2021/11/30 01:46:25;;;;;;;1.40;1.10;;;12.60;99.90;;;;;;6266445;22;20257;-88
2021/11/30 01:51:58;;;;;;;1.20;1.10;;;12.60;99.90;;;;;;6263405;23;20186;-90
2021/11/30 01:54:33;;;;;;;1.53;1.03;;;12.70;99.90;;;;;;6264600;22;20175;-90
2021/11/30 01:57:07;;;;;;;1.03;0.97;;;12.80;99.90;;;;;;6265750;23;20175;-89
2021/11/30 01:59:41;;;;;;;1.07;1.00;;;12.80;99.90;;;;;;6264724;22;20179;-93
2021/11/30 02:02:15;;;;;;;2.13;0.90;;;12.80;99.90;;;;;;6262869;22;20191;-89
2021/11/30 02:04:49;;;;;;;1.10;0.93;;;12.80;99.90;;;;;;6265677;22;20682;-90
2021/11/30 02:07:25;;;;;;;1.00;0.90;;;12.80;99.90;;;;;;6263310;22;20167;-90
2021/11/30 02:09:58;;;;;;;1.70;1.10;;;12.80;99.90;;;;;;6298977;22;20202;-91
2021/11/30 02:12:31;;;;;;;1.67;1.23;;;12.90;99.90;;;;;;6324110;22;20166;-91
2021/11/30 02:15:15;;;;;;;1.40;1.20;;;12.90;99.90;;;;;;6331140;22;20162;-91
2021/11/30 02:17:52;;;;;;;1.10;1.00;;;12.90;99.90;;;;;;6332047;22;20224;-90
2021/11/30 02:20:27;;;;;;;5.90;2.20;;;12.90;99.90;;;;;;6329087;22;20249;-90
2021/11/30 02:23:01;;;;;;;1.63;1.50;;;12.80;99.90;;;;;;6326270;22;20192;-89
2021/11/30 02:25:35;;;;;;;2.20;1.37;;;12.80;99.90;;;;;;6327474;22;20165;-89
2021/11/30 02:28:07;;;;;;;1.10;1.00;;;12.70;99.90;;;;;;6324919;22;20200;-90
2021/11/30 02:30:40;;;;;;;2.23;1.10;;;12.70;99.90;;;;;;6323398;22;20577;-90
2021/11/30 02:33:13;;;;;;;1.10;1.00;;;12.70;99.90;;;;;;6320766;22;20175;-91
2021/11/30 02:35:51;;;;;;;1.23;1.00;;;12.60;99.90;;;;;;6327555;22;20174;-91
2021/11/30 02:38:25;;;;;;;2.40;1.00;;;12.60;99.90;;;;;;6324005;22;20178;-90
2021/11/30 02:41:06;;;;;;;1.33;1.20;;;12.60;99.90;;;;;;6321330;22;20174;-90
2021/11/30 02:43:44;;;;;;;1.90;1.30;;;12.60;99.90;;;;;;6273317;22;20341;-91
2021/11/30 02:46:32;;;;;;;1.73;1.17;;;12.60;99.90;;;;;;6290855;22;20191;-90
2021/11/30 02:49:09;;;;;;;3.20;1.37;;;12.60;99.90;;;;;;6288495;22;20541;-91
2021/11/30 02:51:48;;;;;;;1.27;1.17;;;12.60;99.90;;;;;;6281610;22;20170;-90
2021/11/30 02:54:23;;;;;;;2.47;1.20;;;12.70;99.90;;;;;;6280620;22;20163;-90
2021/11/30 02:57:02;;;;;;;1.77;1.40;;;12.60;99.90;;;;;;6289310;22;20346;-91
2021/11/30 02:59:39;;;;;;;1.20;1.10;;;12.70;99.90;;;;;;6295568;22;20174;-89
2021/11/30 03:02:20;;;;;;;1.37;1.27;;;12.60;99.90;;;;;;6293888;22;20156;-90
2021/11/30 03:07:38;;;;;;;1.50;1.40;;;12.70;99.90;;;;;;6325278;22;20527;-89
2021/11/30 03:10:16;;;;;;;3.47;1.60;;;12.70;99.90;;;;;;6325774;22;20181;-90
2021/11/30 03:12:52;;;;;;;2.13;1.30;;;12.60;99.90;;;;;;6324759;22;20166;-91
2021/11/30 03:15:29;;;;;;;1.40;1.30;;;12.60;99.90;;;;;;6323245;22;20174;-90
2021/11/30 03:18:02;;;;;;;1.53;1.40;;;12.50;99.90;;;;;;6313593;22;20170;-91
2021/11/30 03:20:37;;;;;;;1.47;1.30;;;12.50;99.90;;;;;;6296080;22;20461;-91
2021/11/30 03:23:13;;;;;;;2.50;1.27;;;12.30;99.90;;;;;;6324783;22;20262;-90
2021/11/30 03:25:48;;;;;;;1.90;1.17;;;12.30;99.90;;;;;;6323860;22;20214;-91
2021/11/30 03:28:20;;;;;;;2.00;1.30;;;12.30;99.90;;;;;;6269036;22;20165;-90
2021/11/30 03:31:01;;;;;;;1.63;1.37;;;12.20;99.90;;;;;;6325937;22;20185;-92
2021/11/30 03:36:33;;;;;;;2.47;1.37;;;12.00;99.90;;;;;;6310076;22;20178;-91
2021/11/30 03:39:11;;;;;;;3.73;1.47;;;11.90;99.90;;;;;;6326169;22;20180;-91
2021/11/30 03:41:44;;;;;;;2.00;1.40;;;11.90;99.90;;;;;;6324540;22;20178;-92
2021/11/30 03:44:17;;;;;;;2.13;1.40;;;11.80;99.90;;;;;;6324275;22;20205;-90
2021/11/30 03:46:49;;;;;;;3.37;2.03;;;11.70;99.90;;;;;;6321735;22;20166;-89
2021/11/30 03:49:30;;;;;;;2.40;1.53;;;11.70;99.90;;;;;;6320149;22;20162;-89
2021/11/30 03:52:10;;;;;;;2.77;1.70;;;11.60;99.90;;;;;;6300318;22;20182;-91
2021/11/30 03:54:59;;;;;;;2.37;1.40;;;11.60;99.90;;;;;;6327366;22;20178;-90
2021/11/30 03:57:57;;;;;;;1.53;1.43;;;11.60;99.90;;;;;;6303671;22;20253;-90
2021/11/30 04:00:30;;;;;;;4.87;2.10;;;11.70;99.90;;;;;;6324560;22;20170;-88
2021/11/30 04:03:09;;;;;;;2.47;1.80;;;11.70;99.90;;;;;;6325582;22;20166;-90
2021/11/30 04:05:41;;;;;;;5.27;1.50;;;11.70;99.90;;;;;;6326057;22;20177;-90
2021/11/30 04:08:14;;;;;;;2.40;1.80;;;11.70;99.90;;;;;;6326790;22;20165;-89
2021/11/30 04:10:56;;;;;;;2.93;2.00;;;11.80;99.90;;;;;;6320386;22;20185;-93
2021/11/30 04:13:30;;;;;;;2.33;1.80;;;11.80;99.90;;;;;;6324801;22;20190;-91
2021/11/30 04:16:03;;;;;;;4.43;1.90;;;11.80;99.90;;;;;;6323080;22;20178;-91
2021/11/30 04:18:37;;;;;;;2.10;1.90;;;11.80;99.90;;;;;;6308683;22;20155;-90
2021/11/30 04:21:11;;;;;;;2.33;1.60;;;11.80;99.90;;;;;;6336535;22;20196;-90
2021/11/30 04:23:55;;;;;;;2.53;2.00;;;11.80;99.90;;;;;;6335701;22;20212;-89
2021/11/30 04:26:31;;;;;;;2.30;2.10;;;11.80;99.90;;;;;;6295663;22;20178;-90
2021/11/30 04:29:03;;;;;;;3.83;2.47;;;11.90;99.90;;;;;;6306880;22;20247;-91
2021/11/30 04:31:39;;;;;;;2.87;1.80;;;11.90;99.90;;;;;;6332837;22;20185;-90
2021/11/30 04:36:59;;;;;;;2.87;2.00;;;11.80;99.90;;;;;;6325911;22;20178;-91
2021/11/30 04:39:44;;;;;;;3.23;2.57;;;11.80;99.90;;;;;;6333628;22;20191;-91
2021/11/30 04:42:30;;;;;;;4.43;2.30;;;11.80;99.90;;;;;;6331708;22;20162;-90
2021/11/30 04:45:06;;;;;;;3.17;2.30;;;11.90;99.90;;;;;;6326294;22;20266;-90
2021/11/30 04:47:40;;;;;;;2.10;1.80;;;11.90;99.90;;;;;;6324031;22;20188;-91
2021/11/30 04:50:16;;;;;;;3.20;2.47;;;12.00;99.90;;;;;;6331355;22;20213;-90
2021/11/30 04:52:49;;;;;;;2.40;1.77;;;11.90;99.90;;;;;;6328807;22;20277;-91
2021/11/30 04:55:25;;;;;;;3.03;2.37;;;12.00;99.90;;;;;;6325117;22;20179;-91
2021/11/30 04:58:06;;;;;;;3.27;2.20;;;12.10;99.90;;;;;;6328235;22;20209;-91
2021/11/30 05:00:41;;;;;;;2.53;2.00;;;12.10;99.90;;;;;;6326925;22;20171;-91
2021/11/30 05:03:16;;;;;;;2.53;2.03;;;12.10;99.90;;;;;;6328774;22;20162;-92
2021/11/30 05:05:49;;;;;;;3.90;2.23;;;12.10;99.90;;;;;;6332422;22;20181;-90
2021/11/30 05:08:22;;;;;;;2.43;1.80;;;12.20;99.90;;;;;;6327572;22;20185;-90
2021/11/30 05:13:36;;;;;;;4.30;2.43;;;12.20;99.90;;;;;;6298423;22;20198;-90
2021/11/30 05:16:08;;;;;;;2.73;2.23;;;12.20;99.90;;;;;;6269747;22;20190;-91
2021/11/30 05:18:44;;;;;;;2.83;2.23;;;12.20;99.90;;;;;;6295046;22;20185;-90
2021/11/30 05:21:16;;;;;;;2.77;2.23;;;12.20;99.90;;;;;;6295059;22;20175;-90
2021/11/30 05:23:49;;;;;;;4.60;2.23;;;12.20;99.90;;;;;;6294038;22;20227;-90
2021/11/30 05:26:21;;;;;;;3.23;2.60;;;12.20;99.90;;;;;;6294993;22;20220;-90
2021/11/30 05:28:56;;;;;;;2.80;2.30;;;12.20;99.90;;;;;;6254903;22;20614;-90
2021/11/30 05:31:28;;;;;;;3.40;2.30;;;12.10;99.90;;;;;;6291527;22;20174;-91
2021/11/30 05:34:01;;;;;;;4.17;2.27;;;12.10;99.90;;;;;;6298482;22;20167;-89
2021/11/30 05:36:34;;;;;;;3.47;2.37;;;12.10;99.90;;;;;;6309075;22;20227;-88
2021/11/30 05:39:07;;;;;;;4.67;2.10;;;12.10;99.90;;;;;;6348543;22;20166;-89
2021/11/30 05:41:39;;;;;;;1.67;1.57;;;12.00;99.90;;;;;;6343629;22;20188;-90
2021/11/30 05:44:13;;;;;;;3.53;2.17;;;12.00;99.90;;;;;;6342957;22;20208;-91
2021/11/30 05:46:46;;;;;;;3.60;2.20;;;12.00;99.90;;;;;;6345082;22;20177;-90
2021/11/30 05:49:19;;;;;;;3.33;2.13;;;11.90;99.90;;;;;;6349293;22;20528;-90
2021/11/30 05:51:56;;;;;;;3.43;1.90;;;12.00;99.90;;;;;;6335315;22;20183;-89
2021/11/30 05:54:29;;;;;;;3.73;2.10;;;12.00;99.90;;;;;;6360116;22;20173;-91
2021/11/30 05:57:11;;;;;;;2.90;2.07;;;12.00;99.90;;;;;;6362649;22;20190;-89
2021/11/30 05:59:46;;;;;;;5.03;1.93;;;12.10;99.90;;;;;;6366239;22;20177;-90
2021/11/30 06:02:23;;;;;;;2.80;2.30;;;12.10;99.90;;;;;;6366433;22;20206;-90
2021/11/30 06:04:55;;;;;;;3.50;2.30;;;12.10;99.90;;;;;;6311309;22;20214;-90
2021/11/30 06:07:27;;;;;;;3.60;2.20;;;12.10;99.90;;;;;;6303222;22;20170;-91
2021/11/30 06:10:00;;;;;;;3.63;2.33;;;12.10;99.90;;;;;;6304354;22;20223;-90
2021/11/30 06:12:32;;;;;;;3.47;2.00;;;12.10;99.90;;;;;;6304477;22;20234;-90
2021/11/30 06:15:07;;;;;;;2.13;1.83;;;12.20;99.90;;;;;;6300942;22;20227;-90
2021/11/30 06:17:39;;;;;;;2.13;1.80;;;12.20;99.90;;;;;;6298168;22;20230;-90
2021/11/30 06:20:12;;;;;;;2.60;1.90;;;12.20;99.90;;;;;;6286798;22;20179;-91
2021/11/30 06:22:44;;;;;;;3.70;2.20;;;12.10;99.90;;;;;;6298412;22;20190;-89
2021/11/30 06:25:16;;;;;;;2.40;2.00;;;12.10;99.90;;;;;;6301904;22;20203;-91
2021/11/30 06:27:49;;;;;;;3.80;2.40;;;12.10;99.90;;;;;;6302096;22;20187;-90
2021/11/30 06:30:25;;;;;;;3.33;2.63;;;12.10;99.90;;;;;;6301763;22;20152;-91
2021/11/30 06:32:57;;;;;;;2.40;1.97;;;12.10;99.90;;;;;;6303288;22;20162;-89
2021/11/30 06:35:29;;;;;;;2.37;2.17;;;12.10;99.90;;;;;;6299848;22;20185;-90
2021/11/30 06:38:01;;;;;;;3.20;2.17;;;12.10;99.90;;;;;;6295401;22;20174;-91
2021/11/30 06:40:34;;;;;;;3.37;2.33;;;12.10;99.90;;;;;;6287259;22;20221;-88
2021/11/30 06:43:05;;;;;;;2.10;1.73;;;12.20;99.90;;;;;;6284298;22;20229;-89
2021/11/30 06:45:39;;;;;;;2.93;1.80;;;12.20;99.90;;;;;;6286059;22;20199;-90
2021/11/30 06:48:11;;;;;;;2.30;2.00;;;12.20;99.90;;;;;;6288714;22;20175;-90
2021/11/30 06:50:46;;;;;;;2.17;1.90;;;12.20;99.90;;;;;;6297376;22;20201;-89
2021/11/30 06:53:21;;;;;;;2.60;2.27;;;12.20;99.90;;;;;;6299385;22;20573;-89
2021/11/30 06:56:02;;;;;;;3.83;2.10;;;12.20;99.90;;;;;;6311017;22;20212;-89
2021/11/30 06:58:33;;;;;;;2.37;1.70;;;12.20;99.90;;;;;;6321662;22;20261;-89
2021/11/30 07:01:08;;;;;;;3.10;1.70;;;12.20;99.90;;;;;;6325188;22;20218;-90
2021/11/30 07:03:43;;;;;;;2.83;1.70;;;12.20;99.90;;;;;;6325707;22;20200;-91
2021/11/30 07:06:22;;;;;;;4.20;1.80;;;12.20;99.90;;;;;;6330184;22;20237;-89
2021/11/30 07:09:04;;;;;;;1.80;1.70;;;12.20;99.90;;;;;;6320298;22;20235;-89
2021/11/30 07:14:23;;;;;;;2.33;1.53;;;12.20;99.90;;;;;;6312706;22;20185;-89
2021/11/30 07:16:57;;;;;;;2.47;1.77;;;12.20;99.90;;;;;;6314126;22;20212;-90
2021/11/30 07:19:31;;;;;;;1.97;1.80;;;12.20;99.90;;;;;;6316350;22;20159;-89
2021/11/30 07:22:03;;;;;;;1.83;1.50;;;12.20;99.90;;;;;;6315454;22;20222;-88
2021/11/30 07:24:38;;;;;;;2.13;1.73;;;12.20;99.90;;;;;;6312643;22;20708;-89
2021/11/30 07:27:12;;;;;;;1.70;1.47;;;12.20;99.90;;;;;;6315253;22;20171;-89
2021/11/30 07:29:48;;;;;;;1.80;1.50;;;12.30;99.90;;;;;;6287635;22;20173;-88
2021/11/30 07:32:22;;;;;;;2.67;1.60;;;12.30;99.90;;;;;;6313617;22;20236;-89
2021/11/30 07:34:54;;;;;;;2.70;1.40;;;12.30;99.90;;;;;;6312626;22;20497;-90
2021/11/30 07:37:25;;;;;;;1.60;1.50;;;12.40;99.90;;;;;;6314499;22;20526;-90
2021/11/30 07:39:58;;;;;;;2.77;1.83;;;12.40;99.90;;;;;;6287186;22;20171;-90
2021/11/30 07:42:31;;;;;;;2.00;1.73;;;12.40;99.90;;;;;;6301421;22;20194;-89
2021/11/30 07:45:03;;;;;;;2.17;1.50;;;12.40;99.90;;;;;;6281167;22;20197;-90
2021/11/30 07:47:40;;;;;;;2.43;1.60;;;12.40;99.90;;;;;;6280698;22;20171;-89
2021/11/30 07:50:13;;;;;;;1.90;1.80;;;12.40;99.90;;;;;;6281385;22;20257;-90
2021/11/30 07:52:45;;;;;;;3.00;1.70;;;12.40;99.90;;;;;;6283240;22;20214;-90
2021/11/30 07:55:20;;;;;;;2.33;1.83;;;12.40;99.90;;;;;;6281792;22;20516;-89
2021/11/30 07:57:53;;;;;;;3.77;2.03;;;12.40;99.90;;;;;;6283141;22;20266;-89
2021/11/30 08:00:24;;;;;;;2.13;1.93;;;12.30;99.90;;;;;;6282721;22;20177;-90
2021/11/30 08:02:58;;;;;;;2.50;2.10;;;12.30;99.90;;;;;;6283822;22;20613;-89
2021/11/30 08:05:30;;;;;;;3.97;2.10;;;12.30;99.90;;;;;;6282068;22;20205;-89
2021/11/30 08:08:02;;;;;;;2.77;2.20;;;12.30;99.90;;;;;;6282825;22;20621;-89
2021/11/30 08:10:34;;;;;;;2.73;2.50;;;12.20;99.90;;;;;;6282385;22;20521;-89
2021/11/30 08:13:06;;;;;;;2.77;2.33;;;12.20;99.90;;;;;;6283455;22;20175;-90
2021/11/30 08:15:38;;;;;;;2.67;2.33;;;12.20;99.90;;;;;;6281349;22;20266;-89
2021/11/30 08:18:12;;;;;;;2.30;2.13;;;12.10;99.90;;;;;;6283380;22;20265;-89
2021/11/30 08:20:43;;;;;;;3.37;2.10;;;12.20;99.90;;;;;;6283951;22;20167;-90
2021/11/30 08:23:15;;;;;;;2.20;2.10;;;12.20;99.90;;;;;;6283433;22;20175;-90
2021/11/30 08:25:46;;;;;;;2.53;1.90;;;12.20;99.90;;;;;;6282317;22;20238;-90
2021/11/30 08:28:18;;;;;;;2.30;1.90;;;12.30;99.90;;;;;;6284080;22;20246;-90
2021/11/30 08:30:51;;;;;;;2.87;2.57;;;12.30;99.90;;;;;;6283381;22;20274;-90
2021/11/30 08:33:24;;;;;;;2.20;2.03;;;12.30;99.90;;;;;;6283081;22;20241;-89
2021/11/30 08:35:56;;;;;;;2.73;2.27;;;12.30;99.90;;;;;;6293999;22;20211;-89
2021/11/30 08:38:30;;;;;;;2.43;2.23;;;12.30;99.90;;;;;;6304497;22;20194;-88
2021/11/30 08:41:03;;;;;;;2.50;2.23;;;12.30;99.90;;;;;;6303871;22;20167;-90
2021/11/30 08:43:34;;;;;;;2.20;2.00;;;12.30;99.90;;;;;;6287114;22;20218;-90
2021/11/30 08:46:06;;;;;;;3.07;2.60;;;12.30;99.90;;;;;;6263860;22;20199;-89
2021/11/30 08:48:40;;;;;;;2.30;2.10;;;12.20;99.90;;;;;;6284009;22;20198;-90
2021/11/30 08:51:11;;;;;;;2.77;2.47;;;12.20;99.90;;;;;;6283879;22;20179;-90
2021/11/30 08:53:44;;;;;;;3.97;2.57;;;12.20;99.90;;;;;;6283550;22;20744;-90
2021/11/30 08:56:17;;;;;;;4.67;3.00;;;12.20;99.90;;;;;;6281604;22;20354;-90
2021/11/30 08:58:51;;;;;;;3.27;2.43;;;12.10;99.90;;;;;;6282656;22;20194;-89
2021/11/30 09:01:22;;;;;;;3.50;2.40;;;12.20;99.90;;;;;;6281684;22;20206;-90
2021/11/30 09:03:56;;;;;;;4.20;2.73;;;12.20;99.90;;;;;;6282142;22;20234;-90
2021/11/30 09:06:28;;;;;;;4.23;2.63;;;12.20;99.90;;;;;;6281487;22;20238;-91
2021/11/30 09:09:00;;;;;;;3.70;3.00;;;12.10;99.90;;;;;;6283423;22;20563;-91
2021/11/30 09:11:32;;;;;;;4.90;3.07;;;12.10;99.90;;;;;;6281997;22;20170;-91
2021/11/30 09:14:04;;;;;;;4.80;3.43;;;12.10;99.90;;;;;;6281870;22;20170;-90
2021/11/30 09:16:37;;;;;;;3.50;3.20;;;12.10;99.90;;;;;;6279253;22;20233;-90
2021/11/30 09:19:12;;;;;;;4.17;3.27;;;12.00;99.90;;;;;;6281669;22;20246;-91
2021/11/30 09:21:44;;;;;;;3.93;3.10;;;12.00;99.90;;;;;;6281794;22;20205;-90
2021/11/30 09:24:16;;;;;;;3.70;3.40;;;12.00;99.90;;;;;;6280970;22;20190;-90
2021/11/30 09:26:49;;;;;;;4.40;3.70;;;12.00;99.90;;;;;;6281277;22;20676;-91
2021/11/30 09:29:20;;;;;;;4.50;3.67;;;11.90;99.90;;;;;;6281338;22;20234;-91
2021/11/30 09:31:52;;;;;;;4.43;3.97;;;11.80;99.90;;;;;;6282530;22;20167;-90
2021/11/30 09:34:26;;;;;;;5.67;3.93;;;11.80;99.90;;;;;;6281009;22;20175;-90
2021/11/30 09:36:57;;;;;;;5.70;4.57;;;11.80;99.90;;;;;;6282169;22;20167;-91
2021/11/30 09:39:29;;;;;;;5.20;4.27;;;11.80;99.90;;;;;;6285342;22;20167;-90
2021/11/30 09:42:03;;;;;;;4.70;4.07;;;11.80;99.90;;;;;;6283540;22;20199;-91
2021/11/30 09:44:40;;;;;;;5.67;4.80;;;11.70;99.90;;;;;;6281177;22;20171;-91
2021/11/30 09:47:13;;;;;;;4.37;3.90;;;11.70;99.90;;;;;;6282709;22;20191;-89
2021/11/30 09:49:48;;;;;;;5.57;4.30;;;11.70;99.90;;;;;;6281677;22;20280;-90
2021/11/30 09:52:20;;;;;;;4.17;3.77;;;11.70;99.90;;;;;;6256132;22;20213;-90
2021/11/30 09:54:52;;;;;;;3.90;3.60;;;11.70;99.90;;;;;;6249188;23;20184;-91
2021/11/30 09:57:23;;;;;;;3.80;3.40;;;11.70;99.90;;;;;;6251782;22;20168;-91
2021/11/30 09:59:55;;;;;;;3.80;3.47;;;11.70;99.90;;;;;;6251470;22;20538;-91
2021/11/30 10:02:30;;;;;;;4.07;3.43;;;11.70;99.90;;;;;;6251160;22;20277;-90
2021/11/30 10:05:04;;;;;;;3.80;3.37;;;11.70;99.90;;;;;;6250408;22;20206;-91
2021/11/30 10:07:44;;;;;;;3.93;3.53;;;11.70;99.90;;;;;;6250261;23;20237;-90
2021/11/30 10:10:20;;;;;;;3.90;3.40;;;11.70;99.90;;;;;;6249555;23;20326;-91
2021/11/30 10:13:11;;;;;;;3.90;3.27;;;11.70;99.90;;;;;;6251102;23;20164;-90
2021/11/30 10:15:55;;;;;;;3.10;2.83;;;11.70;99.90;;;;;;6250862;22;20167;-91
2021/11/30 10:18:30;;;;;;;3.40;3.00;;;11.70;99.90;;;;;;6250259;23;20243;-90
2021/11/30 10:21:22;;;;;;;3.40;2.90;;;11.70;99.90;;;;;;6251843;22;20164;-90
2021/11/30 10:23:56;;;;;;;3.93;2.93;;;11.70;99.90;;;;;;6251115;22;20168;-90
2021/11/30 10:26:31;;;;;;;3.03;2.40;;;11.70;99.90;;;;;;6248303;23;20187;-90
2021/11/30 10:29:06;;;;;;;2.93;2.63;;;11.80;99.90;;;;;;6250773;23;20168;-90
2021/11/30 10:31:40;;;;;;;2.80;2.60;;;11.80;99.90;;;;;;6250023;23;20176;-90
2021/11/30 10:34:14;;;;;;;2.70;2.50;;;11.70;99.90;;;;;;6251036;22;20171;-90
2021/11/30 10:36:52;;;;;;;3.23;2.93;;;11.70;99.90;;;;;;6255953;23;20606;-90
2021/11/30 10:39:26;;;;;;;4.10;2.83;;;11.70;99.90;;;;;;6252277;22;20179;-89
2021/11/30 10:42:18;;;;;;;3.43;2.40;;;11.70;99.90;;;;;;6251521;22;20574;-90
2021/11/30 10:44:52;;;;;;;3.33;2.57;;;11.70;99.90;;;;;;6266578;22;20175;-90
2021/11/30 10:47:26;;;;;;;3.33;2.50;;;11.70;99.90;;;;;;6245981;23;20227;-89
2021/11/30 10:49:59;;;;;;;2.50;2.30;;;11.70;99.90;;;;;;6270778;23;20167;-89
2021/11/30 10:52:37;;;;;;;2.60;2.30;;;11.70;99.90;;;;;;6270094;23;20163;-89
2021/11/30 10:55:09;;;;;;;1.97;1.80;;;11.70;99.90;;;;;;6274332;22;20682;-90
2021/11/30 10:57:42;;;;;;;4.93;2.20;;;11.70;99.90;;;;;;6281882;22;20183;-90
2021/11/30 11:00:19;;;;;;;2.33;1.70;;;11.70;99.90;;;;;;6283885;22;20167;-90
2021/11/30 11:03:01;;;;;;;2.70;1.77;;;11.70;99.90;;;;;;6258596;22;20203;-90
2021/11/30 11:05:34;;;;;;;1.43;1.33;;;11.70;99.90;;;;;;6233015;22;20190;-90
2021/11/30 11:08:13;;;;;;;1.50;1.40;;;11.70;99.90;;;;;;6280454;22;20199;-90
2021/11/30 11:10:46;;;;;;;1.30;1.20;;;11.70;99.90;;;;;;6284097;22;20577;-90
2021/11/30 11:13:27;;;;;;;1.60;1.50;;;11.70;99.90;;;;;;6280582;22;20617;-90
2021/11/30 11:16:00;;;;;;;1.77;1.50;;;11.70;99.90;;;;;;6279169;22;20193;-89
2021/11/30 11:18:33;;;;;;;2.60;1.73;;;11.70;99.90;;;;;;6281700;22;20246;-91
2021/11/30 11:21:17;;;;;;;2.63;2.00;;;11.70;99.90;;;;;;6281242;22;20171;-90
2021/11/30 11:24:02;;;;;;;2.27;2.07;;;11.70;99.90;;;;;;6280114;22;20244;-90
2021/11/30 11:26:35;;;;;;;2.37;2.13;;;11.70;99.90;;;;;;6253228;22;20236;-90
2021/11/30 11:29:11;;;;;;;2.97;1.83;;;11.70;99.90;;;;;;6280088;22;20220;-91
2021/11/30 11:31:46;;;;;;;5.47;3.23;;;11.70;99.90;;;;;;6280666;22;20234;-90
2021/11/30 11:34:19;;;;;;;2.27;2.03;;;11.60;99.90;;;;;;6278981;22;20185;-91
2021/11/30 11:36:53;;;;;;;4.80;2.03;;;11.70;99.90;;;;;;6279770;22;20175;-90
2021/11/30 11:39:30;;;;;;;2.23;2.03;;;11.70;99.90;;;;;;6280587;22;20171;-91
2021/11/30 11:42:03;;;;;;;4.43;2.10;;;11.70;99.90;;;;;;6280220;22;20251;-91
2021/11/30 11:44:35;;;;;;;2.13;1.93;;;11.70;99.90;;;;;;6280036;22;20169;-90
2021/11/30 11:47:13;;;;;;;1.77;1.67;;;11.60;99.90;;;;;;6281407;22;20193;-90
2021/11/30 11:49:47;;;;;;;2.23;2.00;;;11.60;99.90;;;;;;6280411;22;20171;-90
2021/11/30 11:52:26;;;;;;;1.80;1.70;;;11.60;99.90;;;;;;6281155;22;20162;-90
2021/11/30 11:55:10;;;;;;;2.77;1.60;;;11.70;99.90;;;;;;6223727;23;20187;-90
2021/11/30 11:57:42;;;;;;;1.87;1.70;;;11.60;99.90;;;;;;6251324;23;20172;-91
2021/11/30 12:00:20;;;;;;;1.97;1.60;;;11.70;99.90;;;;;;6252057;22;20178;-91
2021/11/30 12:02:53;;;;;;;3.10;1.90;;;11.70;99.90;;;;;;6253002;22;20164;-91
2021/11/30 12:05:49;;;;;;;2.20;2.00;;;11.70;99.90;;;;;;6249611;22;20179;-91
2021/11/30 12:08:23;;;;;;;2.23;2.00;;;11.70;99.90;;;;;;6246873;22;20196;-91
2021/11/30 12:10:57;;;;;;;2.63;2.40;;;11.60;99.90;;;;;;6251649;23;20258;-91
2021/11/30 12:13:29;;;;;;;2.87;2.67;;;11.60;99.90;;;;;;6252389;23;20473;-91
2021/11/30 12:16:04;;;;;;;2.73;2.53;;;11.60;99.90;;;;;;6249397;22;20211;-91
2021/11/30 12:18:40;;;;;;;3.07;2.77;;;11.60;99.90;;;;;;6253530;22;20151;-91
2021/11/30 12:21:13;;;;;;;2.60;2.40;;;11.60;99.90;;;;;;6251907;23;20201;-90
2021/11/30 12:23:47;;;;;;;2.57;2.37;;;11.70;99.90;;;;;;6255041;22;20179;-91
2021/11/30 12:26:37;;;;;;;4.57;2.47;;;11.60;99.90;;;;;;6253183;22;20195;-90
2021/11/30 12:29:34;;;;;;;2.50;2.30;;;11.60;99.90;;;;;;6257423;22;20252;-90
2021/11/30 12:32:17;;;;;;;2.20;2.00;;;11.70;99.90;;;;;;6256577;23;20184;-90
2021/11/30 12:34:49;;;;;;;2.97;2.00;;;11.70;99.90;;;;;;6261480;23;20168;-89
2021/11/30 12:37:28;;;;;;;3.00;2.17;;;11.70;99.90;;;;;;6266944;23;20188;-90
2021/11/30 12:40:05;;;;;;;2.37;2.17;;;11.70;99.90;;;;;;6266722;22;20156;-90
2021/11/30 12:42:56;;;;;;;2.00;1.90;;;11.70;99.90;;;;;;6255507;22;20195;-90
2021/11/30 12:45:46;;;;;;;2.17;1.90;;;11.70;99.90;;;;;;6255453;23;20239;-90
2021/11/30 12:48:25;;;;;;;2.03;1.87;;;11.70;99.90;;;;;;6254184;22;20199;-90
2021/11/30 12:51:28;;;;;;;1.90;1.80;;;11.70;99.90;;;;;;6252222;22;20167;-90
2021/11/30 12:54:23;;;;;;;2.07;1.87;;;11.70;99.90;;;;;;6256058;22;20193;-89
2021/11/30 12:56:58;;;;;;;1.63;1.47;;;11.60;99.90;;;;;;6297060;22;20214;-90
2021/11/30 13:00:01;;;;;;;1.50;1.40;;;11.70;99.90;;;;;;6302925;22;20185;-90
2021/11/30 13:02:36;;;;;;;2.37;1.50;;;11.60;99.90;;;;;;6238789;22;20178;-89
2021/11/30 13:05:29;;;;;;;1.30;1.20;;;11.70;99.90;;;;;;6294907;22;20174;-90
2021/11/30 13:08:11;;;;;;;1.30;1.20;;;11.60;99.90;;;;;;6292921;22;20194;-91
2021/11/30 13:10:59;;;;;;;2.70;1.67;;;11.60;99.90;;;;;;6286784;22;20174;-91
2021/11/30 13:13:34;;;;;;;1.40;1.30;;;11.60;99.90;;;;;;6283322;22;20254;-91
2021/11/30 13:16:09;;;;;;;1.53;1.43;;;11.60;99.90;;;;;;6284437;22;20226;-91
2021/11/30 13:18:40;;;;;;;1.60;1.50;;;11.70;99.90;;;;;;6287128;22;20296;-91
2021/11/30 13:21:13;;;;;;;1.37;1.27;;;11.70;99.90;;;;;;6284212;22;20590;-89
2021/11/30 13:23:46;;;;;;;1.60;1.50;;;11.70;99.90;;;;;;6285144;22;20175;-89
2021/11/30 13:26:21;;;;;;;2.43;1.63;;;11.70;99.90;;;;;;6282929;22;20245;-90
2021/11/30 13:28:58;;;;;;;1.67;1.57;;;11.70;99.90;;;;;;6282156;22;20202;-90
2021/11/30 13:31:33;;;;;;;2.23;1.57;;;11.70;99.90;;;;;;6283058;22;20158;-90
2021/11/30 13:34:15;;;;;;;3.60;2.57;;;11.70;99.90;;;;;;6284038;22;20179;-92
2021/11/30 13:36:48;;;;;;;2.60;2.13;;;11.70;99.90;;;;;;6282505;22;20173;-91
2021/11/30 13:39:20;;;;;;;3.70;2.40;;;11.70;99.90;;;;;;6281212;22;20170;-90
2021/11/30 13:41:54;;;;;;;3.30;2.40;;;11.70;99.90;;;;;;6291634;22;20213;-90
2021/11/30 13:44:26;;;;;;;2.90;2.70;;;11.70;99.90;;;;;;6282025;22;20206;-90
2021/11/30 13:47:01;;;;;;;3.10;2.90;;;11.70;99.90;;;;;;6282232;22;20186;-91